Wetterdaten: Woche 23.02.15 - 01.03.15 (KW9)
Datum Zeit Temp. A. Feuchte A. Luftdruck Regen Wind Richtung Taupunkt Windchill Windben
23.02.2015 00:00 3,6 C 85 % 1009,9 hPa 0,0 l/m 3,7 km/h N 1,4 C 3,6 C 10,1 km/h
23.02.2015 01:00 3,7 C 85 % 1009,7 hPa 0,0 l/m 3,7 km/h N 1,4 C 3,7 C 10,1 km/h
23.02.2015 02:00 3,7 C 85 % 1008,9 hPa 0,0 l/m 3,8 km/h N 1,4 C 3,7 C 10,5 km/h
23.02.2015 03:00 3,5 C 85 % 1008,5 hPa 0,0 l/m 2,7 km/h N 1,3 C 3,5 C 9,3 km/h
23.02.2015 04:00 3,5 C 85 % 1008,2 hPa 0,0 l/m 1,9 km/h N 1,2 C 3,5 C 7,2 km/h
23.02.2015 05:00 3,5 C 85 % 1007,8 hPa 0,0 l/m 1,3 km/h N 1,3 C 3,5 C 6,0 km/h
23.02.2015 06:00 3,4 C 85 % 1007,6 hPa 0,0 l/m 0,1 km/h N 1,1 C 3,4 C 0,8 km/h
23.02.2015 07:00 3,3 C 85 % 1007,1 hPa 0,0 l/m 0,0 km/h N 1,0 C 3,3 C 0,8 km/h
23.02.2015 08:00 3,7 C 86 % 1006,8 hPa 0,0 l/m 0,2 km/h N 1,5 C 3,7 C 2,4 km/h
23.02.2015 09:00 4,4 C 85 % 1006,4 hPa 0,0 l/m 0,4 km/h N 2,2 C 4,4 C 3,6 km/h
23.02.2015 10:00 5,1 C 84 % 1005,6 hPa 0,0 l/m 2,9 km/h N 2,6 C 5,1 C 10,5 km/h
23.02.2015 11:00 6,4 C 81 % 1004,5 hPa 0,0 l/m 4,7 km/h N 3,4 C 6,4 C 11,3 km/h
23.02.2015 12:00 7,3 C 81 % 1003,1 hPa 0,0 l/m 4,4 km/h N 4,3 C 7,3 C 14,9 km/h
23.02.2015 13:00 7,7 C 81 % 1002,0 hPa 0,0 l/m 4,5 km/h N 4,6 C 7,7 C 14,5 km/h
23.02.2015 14:00 7,5 C 82 % 1001,4 hPa 0,0 l/m 2,4 km/h N 4,6 C 7,5 C 10,1 km/h
23.02.2015 15:00 7,9 C 82 % 1001,1 hPa 0,0 l/m 2,1 km/h N 4,9 C 7,9 C 9,7 km/h
23.02.2015 16:00 8,2 C 81 % 1000,8 hPa 0,0 l/m 0,3 km/h N 5,2 C 8,2 C 4,8 km/h
23.02.2015 17:00 7,6 C 79 % 1001,2 hPa 0,0 l/m 1,0 km/h N 4,1 C 7,6 C 5,6 km/h
23.02.2015 18:00 5,0 C 80 % 1002,4 hPa 0,0 l/m 0,0 km/h N 1,8 C 5,0 C 0,4 km/h
23.02.2015 19:00 3,0 C 84 % 1003,0 hPa 0,0 l/m 0,1 km/h N 0,5 C 3,0 C 1,2 km/h
23.02.2015 20:00 1,7 C 85 % 1003,4 hPa 0,0 l/m 0,0 km/h N -0,5 C 1,7 C 0,0 km/h
23.02.2015 21:00 1,2 C 86 % 1003,8 hPa 0,0 l/m 0,0 km/h N -1,0 C 1,2 C 0,0 km/h
23.02.2015 22:00 1,5 C 85 % 1003,9 hPa 0,0 l/m 0,0 km/h N -0,7 C 1,5 C 0,0 km/h
23.02.2015 23:00 1,9 C 85 % 1004,0 hPa 0,0 l/m 0,1 km/h N -0,4 C 1,9 C 1,6 km/h
24.02.2015 00:00 2,4 C 85 % 1004,1 hPa 0,0 l/m 0,0 km/h N 0,2 C 2,4 C 0,8 km/h
24.02.2015 01:00 2,6 C 84 % 1004,1 hPa 0,0 l/m 0,0 km/h N 0,2 C 2,6 C 0,0 km/h
24.02.2015 02:00 2,4 C 84 % 1004,2 hPa 0,0 l/m 0,0 km/h N -0,1 C 2,4 C 0,0 km/h
24.02.2015 03:00 2,3 C 83 % 1004,3 hPa 0,0 l/m 0,0 km/h N -0,3 C 2,3 C 0,0 km/h
24.02.2015 04:00 2,4 C 83 % 1004,4 hPa 0,0 l/m 0,0 km/h N -0,2 C 2,4 C 0,0 km/h
24.02.2015 05:00 2,6 C 83 % 1004,5 hPa 0,3 l/m 0,0 km/h N 0,1 C 2,6 C 0,0 km/h
24.02.2015 06:00 2,9 C 83 % 1004,9 hPa 0,8 l/m 0,0 km/h N 0,3 C 2,9 C 0,0 km/h
24.02.2015 07:00 3,1 C 82 % 1005,5 hPa 0,5 l/m 0,0 km/h N 0,4 C 3,1 C 0,0 km/h
24.02.2015 08:00 3,6 C 82 % 1006,3 hPa 0,3 l/m 0,0 km/h N 0,7 C 3,6 C 0,0 km/h
24.02.2015 09:00 4,7 C 81 % 1006,4 hPa 0,3 l/m 0,0 km/h N 1,7 C 4,7 C 0,8 km/h
24.02.2015 10:00 6,2 C 80 % 1006,4 hPa 0,3 l/m 0,6 km/h N 3,0 C 6,2 C 3,6 km/h
24.02.2015 11:00 6,5 C 81 % 1006,7 hPa 0,3 l/m 4,1 km/h N 3,5 C 6,5 C 11,7 km/h
24.02.2015 12:00 6,3 C 84 % 1006,9 hPa 0,8 l/m 4,8 km/h N 3,8 C 6,3 C 12,1 km/h
24.02.2015 13:00 5,9 C 85 % 1007,1 hPa 1,0 l/m 4,5 km/h N 3,6 C 5,9 C 11,3 km/h
24.02.2015 14:00 6,1 C 85 % 1007,5 hPa 0,8 l/m 3,1 km/h N 3,8 C 6,1 C 9,7 km/h
24.02.2015 15:00 6,3 C 85 % 1008,0 hPa 0,5 l/m 1,9 km/h N 4,0 C 6,3 C 7,2 km/h
24.02.2015 16:00 6,3 C 85 % 1008,5 hPa 0,8 l/m 0,5 km/h N 4,0 C 6,3 C 3,6 km/h
24.02.2015 17:00 5,7 C 85 % 1009,3 hPa 0,8 l/m 4,1 km/h N 3,4 C 5,7 C 12,1 km/h
24.02.2015 18:00 5,0 C 86 % 1010,0 hPa 0,3 l/m 6,0 km/h N 2,8 C 4,8 C 16,5 km/h
24.02.2015 19:00 5,2 C 85 % 1010,6 hPa 0,0 l/m 9,9 km/h N 2,9 C 2,5 C 23,7 km/h
24.02.2015 20:00 5,1 C 85 % 1011,0 hPa 0,3 l/m 10,9 km/h N 2,8 C 1,6 C 28,5 km/h
24.02.2015 21:00 4,9 C 84 % 1011,7 hPa 0,0 l/m 14,8 km/h N 2,5 C -0,9 C 32,2 km/h
24.02.2015 22:00 4,5 C 83 % 1012,3 hPa 0,0 l/m 13,4 km/h N 1,9 C -0,6 C 29,8 km/h
24.02.2015 23:00 4,4 C 83 % 1012,6 hPa 0,0 l/m 13,3 km/h N 1,8 C -0,7 C 27,4 km/h
25.02.2015 00:00 4,5 C 83 % 1013,1 hPa 0,0 l/m 13,2 km/h N 1,9 C -0,5 C 28,2 km/h
25.02.2015 01:00 4,4 C 83 % 1013,5 hPa 0,0 l/m 12,6 km/h N 1,8 C -0,2 C 28,6 km/h
25.02.2015 02:00 4,6 C 82 % 1013,7 hPa 0,0 l/m 14,3 km/h N 1,7 C -0,9 C 30,2 km/h
25.02.2015 03:00 4,0 C 83 % 1014,3 hPa 0,0 l/m 12,5 km/h N 1,3 C -0,8 C 30,6 km/h
25.02.2015 04:00 3,3 C 85 % 1014,7 hPa 0,3 l/m 11,0 km/h N 1,0 C -0,5 C 25,4 km/h
25.02.2015 05:00 3,5 C 84 % 1015,2 hPa 0,0 l/m 12,1 km/h N 1,1 C -1,0 C 27,8 km/h
25.02.2015 06:00 3,7 C 84 % 1015,5 hPa 0,0 l/m 10,0 km/h N 1,2 C 0,6 C 24,1 km/h
25.02.2015 07:00 3,4 C 84 % 1016,0 hPa 0,3 l/m 11,2 km/h N 1,0 C -0,5 C 27,3 km/h
25.02.2015 08:00 3,3 C 85 % 1016,7 hPa 0,5 l/m 11,8 km/h N 0,9 C -1,0 C 27,0 km/h
25.02.2015 09:00 3,1 C 86 % 1017,0 hPa 0,3 l/m 9,9 km/h N 1,0 C 0,1 C 24,5 km/h
25.02.2015 10:00 3,4 C 86 % 1017,1 hPa 0,3 l/m 9,6 km/h N 1,2 C 0,7 C 22,9 km/h
25.02.2015 11:00 3,8 C 86 % 1017,2 hPa 0,3 l/m 10,1 km/h N 1,6 C 0,7 C 24,9 km/h
25.02.2015 12:00 5,0 C 84 % 1016,5 hPa 0,0 l/m 10,6 km/h N 2,5 C 1,7 C 27,8 km/h
25.02.2015 13:00 5,9 C 79 % 1016,0 hPa 0,0 l/m 10,9 km/h N 2,6 C 2,5 C 25,7 km/h
25.02.2015 14:00 6,4 C 78 % 1015,9 hPa 0,0 l/m 10,6 km/h N 2,9 C 3,2 C 24,9 km/h
25.02.2015 15:00 6,2 C 78 % 1015,8 hPa 0,0 l/m 9,5 km/h N 2,6 C 3,7 C 23,3 km/h
25.02.2015 16:00 6,2 C 77 % 1016,1 hPa 0,0 l/m 9,4 km/h N 2,5 C 3,7 C 23,7 km/h
25.02.2015 17:00 5,9 C 78 % 1016,7 hPa 0,0 l/m 7,6 km/h N 2,4 C 4,8 C 20,1 km/h
25.02.2015 18:00 5,8 C 80 % 1017,5 hPa 0,0 l/m 6,5 km/h N 2,5 C 5,2 C 16,9 km/h
25.02.2015 19:00 5,7 C 77 % 1017,7 hPa 0,0 l/m 7,0 km/h N 2,0 C 5,1 C 20,1 km/h
25.02.2015 20:00 5,7 C 76 % 1018,1 hPa 0,0 l/m 7,5 km/h N 1,7 C 4,7 C 20,9 km/h
25.02.2015 21:00 5,6 C 76 % 1018,7 hPa 0,0 l/m 6,8 km/h N 1,7 C 4,9 C 20,1 km/h
25.02.2015 22:00 5,3 C 77 % 1019,0 hPa 0,0 l/m 4,5 km/h N 1,6 C 5,3 C 15,7 km/h
25.02.2015 23:00 5,2 C 77 % 1019,2 hPa 0,0 l/m 6,1 km/h N 1,5 C 5,0 C 17,7 km/h
26.02.2015 00:00 4,9 C 77 % 1019,4 hPa 0,0 l/m 6,2 km/h N 1,2 C 4,6 C 18,1 km/h
26.02.2015 01:00 4,8 C 77 % 1019,7 hPa 0,0 l/m 7,8 km/h N 1,0 C 3,5 C 20,5 km/h
26.02.2015 02:00 4,6 C 77 % 1019,8 hPa 0,0 l/m 8,9 km/h N 0,9 C 2,6 C 21,7 km/h
26.02.2015 03:00 4,3 C 78 % 1019,9 hPa 0,0 l/m 6,3 km/h N 0,8 C 3,8 C 18,9 km/h
26.02.2015 04:00 4,3 C 78 % 1020,1 hPa 0,0 l/m 6,7 km/h N 0,7 C 3,7 C 19,7 km/h
26.02.2015 05:00 4,2 C 78 % 1020,3 hPa 0,0 l/m 7,2 km/h N 0,7 C 3,2 C 20,9 km/h
26.02.2015 06:00 4,1 C 78 % 1020,5 hPa 0,0 l/m 7,7 km/h N 0,6 C 3,0 C 22,1 km/h
26.02.2015 07:00 4,1 C 77 % 1020,9 hPa 0,0 l/m 9,2 km/h N 0,5 C 1,7 C 21,7 km/h
26.02.2015 08:00 4,4 C 77 % 1021,2 hPa 0,0 l/m 8,6 km/h N 0,7 C 2,5 C 22,9 km/h
26.02.2015 09:00 4,9 C 75 % 1021,1 hPa 0,0 l/m 8,8 km/h N 0,9 C 2,8 C 20,5 km/h
26.02.2015 10:00 5,0 C 75 % 1021,1 hPa 0,0 l/m 7,9 km/h N 0,9 C 3,7 C 22,5 km/h
26.02.2015 11:00 5,4 C 75 % 1020,9 hPa 0,0 l/m 7,2 km/h N 1,3 C 4,6 C 21,3 km/h
26.02.2015 12:00 5,8 C 72 % 1020,3 hPa 0,0 l/m 8,3 km/h N 1,2 C 4,2 C 20,1 km/h
26.02.2015 13:00 6,1 C 71 % 1019,8 hPa 0,0 l/m 5,8 km/h N 1,3 C 6,1 C 15,7 km/h
26.02.2015 14:00 6,5 C 69 % 1019,3 hPa 0,0 l/m 6,0 km/h N 1,3 C 6,3 C 18,5 km/h
26.02.2015 15:00 6,4 C 69 % 1019,1 hPa 0,0 l/m 4,5 km/h N 1,1 C 6,4 C 13,7 km/h
26.02.2015 16:00 6,5 C 69 % 1018,8 hPa 0,0 l/m 3,1 km/h N 1,2 C 6,5 C 10,9 km/h
26.02.2015 17:00 6,2 C 70 % 1018,8 hPa 0,0 l/m 1,2 km/h N 1,1 C 6,2 C 7,2 km/h
26.02.2015 18:00 5,1 C 73 % 1018,7 hPa 0,0 l/m 0,0 km/h N 0,6 C 5,1 C 0,8 km/h
26.02.2015 19:00 3,3 C 77 % 1018,7 hPa 0,0 l/m 0,0 km/h N -0,3 C 3,3 C 0,4 km/h
26.02.2015 20:00 1,9 C 82 % 1018,7 hPa 0,0 l/m 0,0 km/h N -0,9 C 1,9 C 0,0 km/h
26.02.2015 21:00 1,2 C 83 % 1018,4 hPa 0,0 l/m 0,0 km/h N -1,4 C 1,2 C 0,0 km/h
26.02.2015 22:00 0,2 C 84 % 1017,8 hPa 0,0 l/m 0,0 km/h N -2,2 C 0,2 C 0,0 km/h
26.02.2015 23:00 -0,4 C 85 % 1017,1 hPa 0,0 l/m 0,0 km/h N -2,6 C -0,4 C 0,0 km/h
27.02.2015 00:00 -0,6 C 86 % 1016,6 hPa 0,0 l/m 0,0 km/h N -2,7 C -0,6 C 0,8 km/h
27.02.2015 01:00 -0,8 C 86 % 1016,2 hPa 0,0 l/m 0,0 km/h N -2,8 C -0,8 C 0,4 km/h
27.02.2015 02:00 -1,0 C 86 % 1015,6 hPa 0,0 l/m 0,0 km/h N -3,1 C -1,0 C 0,0 km/h
27.02.2015 03:00 -0,2 C 85 % 1014,8 hPa 0,0 l/m 0,0 km/h N -2,4 C -0,2 C 0,0 km/h
27.02.2015 04:00 -0,3 C 85 % 1014,2 hPa 0,0 l/m 0,0 km/h N -2,5 C -0,3 C 0,0 km/h
27.02.2015 05:00 -0,8 C 85 % 1013,8 hPa 0,0 l/m 0,0 km/h N -3,0 C -0,8 C 0,0 km/h
27.02.2015 06:00 -0,6 C 84 % 1013,7 hPa 0,0 l/m 0,0 km/h N -3,0 C -0,6 C 0,0 km/h
27.02.2015 07:00 0,2 C 84 % 1013,7 hPa 0,0 l/m 0,0 km/h N -2,3 C 0,2 C 0,0 km/h
27.02.2015 08:00 1,9 C 83 % 1013,5 hPa 0,0 l/m 0,2 km/h N -0,7 C 1,9 C 2,8 km/h
27.02.2015 09:00 3,3 C 84 % 1013,1 hPa 0,0 l/m 0,7 km/h N 0,9 C 3,3 C 5,2 km/h
27.02.2015 10:00 5,1 C 82 % 1013,2 hPa 0,0 l/m 1,2 km/h N 2,2 C 5,1 C 6,8 km/h
27.02.2015 11:00 7,3 C 75 % 1012,6 hPa 0,0 l/m 1,5 km/h N 3,2 C 7,3 C 6,8 km/h
27.02.2015 12:00 10,1 C 66 % 1011,7 hPa 0,0 l/m 3,8 km/h N 4,0 C 10,1 C 12,9 km/h
27.02.2015 13:00 10,9 C 63 % 1010,8 hPa 0,0 l/m 4,8 km/h N 4,1 C 10,9 C 17,7 km/h
27.02.2015 14:00 10,8 C 63 % 1010,7 hPa 0,0 l/m 3,4 km/h N 3,9 C 10,8 C 17,2 km/h
27.02.2015 15:00 9,9 C 64 % 1011,3 hPa 0,0 l/m 5,9 km/h N 3,4 C 9,7 C 22,1 km/h
27.02.2015 16:00 8,8 C 69 % 1011,8 hPa 0,0 l/m 3,6 km/h N 3,3 C 8,8 C 15,3 km/h
27.02.2015 17:00 7,4 C 73 % 1012,4 hPa 0,0 l/m 1,4 km/h N 2,8 C 7,4 C 8,4 km/h
27.02.2015 18:00 5,9 C 76 % 1013,4 hPa 0,0 l/m 0,1 km/h N 2,0 C 5,9 C 2,0 km/h
27.02.2015 19:00 4,1 C 77 % 1014,0 hPa 0,0 l/m 0,0 km/h N 0,4 C 4,1 C 0,0 km/h
27.02.2015 20:00 2,8 C 81 % 1014,8 hPa 0,0 l/m 0,0 km/h N -0,1 C 2,8 C 0,0 km/h
27.02.2015 21:00 2,3 C 84 % 1015,7 hPa 0,0 l/m 0,0 km/h N -0,2 C 2,3 C 0,4 km/h
27.02.2015 22:00 2,5 C 85 % 1016,1 hPa 0,0 l/m 0,0 km/h N 0,2 C 2,5 C 0,4 km/h
27.02.2015 23:00 3,1 C 85 % 1016,3 hPa 0,0 l/m 0,1 km/h N 0,9 C 3,1 C 0,4 km/h
28.02.2015 00:00 3,3 C 85 % 1016,5 hPa 0,0 l/m 0,0 km/h N 1,0 C 3,3 C 0,4 km/h
28.02.2015 01:00 2,6 C 85 % 1016,5 hPa 0,0 l/m 0,0 km/h N 0,3 C 2,6 C 1,6 km/h
28.02.2015 02:00 3,8 C 85 % 1016,4 hPa 0,0 l/m 2,7 km/h N 1,5 C 3,8 C 12,5 km/h
28.02.2015 03:00 5,1 C 76 % 1016,6 hPa 0,0 l/m 6,7 km/h N 1,3 C 4,8 C 20,1 km/h
28.02.2015 04:00 4,6 C 77 % 1017,2 hPa 0,0 l/m 4,0 km/h N 0,9 C 4,6 C 14,1 km/h
28.02.2015 05:00 4,3 C 77 % 1017,5 hPa 0,0 l/m 7,6 km/h N 0,6 C 2,9 C 20,5 km/h
28.02.2015 06:00 4,6 C 75 % 1017,8 hPa 0,0 l/m 9,5 km/h N 0,6 C 2,1 C 22,5 km/h
28.02.2015 07:00 4,7 C 77 % 1018,7 hPa 0,0 l/m 9,4 km/h N 1,0 C 2,3 C 24,5 km/h
28.02.2015 08:00 5,2 C 77 % 1019,4 hPa 0,0 l/m 9,4 km/h N 1,5 C 2,8 C 21,7 km/h
28.02.2015 09:00 6,3 C 73 % 1019,8 hPa 0,0 l/m 9,9 km/h N 1,8 C 3,6 C 23,7 km/h
28.02.2015 10:00 7,2 C 70 % 1020,0 hPa 0,0 l/m 10,6 km/h N 2,1 C 4,1 C 25,8 km/h
28.02.2015 11:00 7,6 C 68 % 1020,3 hPa 0,0 l/m 11,0 km/h N 2,0 C 4,3 C 22,9 km/h
28.02.2015 12:00 7,5 C 69 % 1020,0 hPa 0,0 l/m 8,4 km/h N 2,2 C 6,0 C 20,5 km/h
28.02.2015 13:00 8,0 C 66 % 1019,5 hPa 0,0 l/m 9,6 km/h N 1,9 C 5,6 C 23,3 km/h
28.02.2015 14:00 8,0 C 65 % 1019,3 hPa 0,0 l/m 9,8 km/h N 1,8 C 5,6 C 25,3 km/h
28.02.2015 15:00 7,7 C 65 % 1019,2 hPa 0,0 l/m 8,1 km/h N 1,6 C 6,4 C 20,5 km/h
28.02.2015 16:00 7,3 C 66 % 1019,0 hPa 0,0 l/m 6,4 km/h N 1,3 C 6,9 C 19,7 km/h
28.02.2015 17:00 6,5 C 68 % 1019,1 hPa 0,0 l/m 4,1 km/h N 1,0 C 6,2 C 14,5 km/h
28.02.2015 18:00 5,5 C 70 % 1019,3 hPa 0,0 l/m 1,6 km/h N 0,4 C 5,5 C 7,6 km/h
28.02.2015 19:00 4,6 C 72 % 1019,6 hPa 0,0 l/m 0,6 km/h N -0,0 C 4,6 C 4,4 km/h
28.02.2015 20:00 3,6 C 73 % 1019,6 hPa 0,0 l/m 0,2 km/h N -0,7 C 3,6 C 4,0 km/h
28.02.2015 21:00 2,7 C 77 % 1019,7 hPa 0,0 l/m 0,2 km/h N -1,0 C 2,7 C 0,8 km/h
28.02.2015 22:00 1,3 C 79 % 1019,2 hPa 0,0 l/m 0,0 km/h N -2,0 C 1,3 C 0,8 km/h
28.02.2015 23:00 0,3 C 82 % 1018,8 hPa 0,0 l/m 0,0 km/h N -2,5 C 0,3 C 1,2 km/h
01.03.2015 00:00 -0,3 C 84 % 1018,3 hPa 0,0 l/m 0,3 km/h N -2,7 C -0,3 C 1,6 km/h
01.03.2015 01:00 -0,5 C 84 % 1017,9 hPa 0,0 l/m 0,3 km/h N -2,9 C -0,5 C 1,6 km/h
01.03.2015 02:00 -1,2 C 85 % 1016,9 hPa 0,0 l/m 0,0 km/h N -3,4 C -1,2 C 0,8 km/h
01.03.2015 03:00 -1,7 C 85 % 1016,1 hPa 0,0 l/m 0,0 km/h N -3,9 C -1,7 C 0,0 km/h
01.03.2015 04:00 -2,3 C 86 % 1015,8 hPa 0,0 l/m 0,0 km/h N -4,4 C -2,3 C 0,0 km/h
01.03.2015 05:00 -2,6 C 86 % 1015,1 hPa 0,0 l/m 0,0 km/h N -4,6 C -2,6 C 0,8 km/h
01.03.2015 06:00 -2,9 C 86 % 1014,6 hPa 0,0 l/m 0,0 km/h N -4,9 C -2,9 C 0,4 km/h
01.03.2015 07:00 -2,6 C 86 % 1014,4 hPa 0,0 l/m 0,0 km/h N -4,7 C -2,6 C 0,4 km/h
01.03.2015 08:00 0,3 C 83 % 1014,2 hPa 0,0 l/m 0,6 km/h N -2,2 C 0,3 C 3,6 km/h
01.03.2015 09:00 3,2 C 84 % 1013,7 hPa 0,0 l/m 1,7 km/h N 0,8 C 3,2 C 6,4 km/h
01.03.2015 10:00 6,1 C 74 % 1013,1 hPa 0,0 l/m 1,4 km/h N 1,8 C 6,1 C 6,8 km/h
01.03.2015 11:00 7,0 C 68 % 1012,7 hPa 0,0 l/m 1,1 km/h N 1,4 C 7,0 C 5,2 km/h
01.03.2015 12:00 8,4 C 66 % 1011,9 hPa 0,0 l/m 0,9 km/h N 2,3 C 8,4 C 6,0 km/h
01.03.2015 13:00 9,3 C 63 % 1011,4 hPa 0,0 l/m 0,3 km/h N 2,6 C 9,3 C 3,2 km/h
01.03.2015 14:00 9,5 C 58 % 1011,3 hPa 0,0 l/m 4,3 km/h N 1,7 C 9,5 C 16,5 km/h
01.03.2015 15:00 8,9 C 70 % 1010,9 hPa 0,3 l/m 0,8 km/h N 3,7 C 8,9 C 4,0 km/h
01.03.2015 16:00 8,1 C 77 % 1010,8 hPa 0,0 l/m 0,3 km/h N 4,4 C 8,1 C 2,0 km/h
01.03.2015 17:00 7,6 C 82 % 1011,0 hPa 0,3 l/m 0,1 km/h N 4,6 C 7,6 C 2,0 km/h
01.03.2015 18:00 6,9 C 84 % 1011,1 hPa 0,0 l/m 0,1 km/h N 4,3 C 6,9 C 2,8 km/h
01.03.2015 19:00 6,6 C 84 % 1010,8 hPa 0,0 l/m 0,1 km/h N 4,1 C 6,6 C 1,6 km/h
01.03.2015 20:00 6,6 C 85 % 1010,9 hPa 0,0 l/m 0,6 km/h N 4,2 C 6,6 C 4,8 km/h
01.03.2015 21:00 6,6 C 84 % 1010,7 hPa 0,0 l/m 0,2 km/h N 4,1 C 6,6 C 2,8 km/h
01.03.2015 22:00 7,3 C 85 % 1010,4 hPa 0,0 l/m 1,8 km/h N 4,9 C 7,3 C 6,8 km/h
01.03.2015 23:00 7,2 C 85 % 1009,8 hPa 0,0 l/m 0,0 km/h N 4,8 C 7,2 C 0,8 km/h
Min-Datum _ 01.03.15 01.03.15 23.02.15 - 23.02.15 - 01.03.15 01.03.15 23.02.15
_ Min-Zeit 06:15 14:00 16:45 - 05:45 - 06:15 06:15 06:15
Minimum _ -3,0 C 57 % 1000,7 hPa - 0,0 km/h - -5,0 C -3,0 C 0,0 km/h
Max-Datum _ 27.02.15 24.02.15 26.02.15 24.02.15 25.02.15 - 23.02.15 27.02.15 24.02.15
_ Max-Zeit 14:00 00:15 08:15 13:00 02:30 - 16:00 13:30 21:45
Maximum _ 11,4 C 89 % 1021,2 hPa 1,0 l/m 17,0 km/h
N
- 5,2 C 11,1 C 35,4 km/h
N
Durchschnitt _ 4,4 C 79 % 1013,4 hPa #10,1 l/m 3,9 km/h N 1,1 C 3,6 C 11,0 km/h